Terminal Aerodrome Forecast
Issued by NWS Memphis, TN

Home | Current Version | Previous Version | Text Only | Print | Product List | Glossary On
Versions: 1 2 3 4 5 6 7 8 9 10 11 12 13 14 15 16 17 18 19 20 21 22 23
000
FTUS44 KMEG 050523
TAFMKL
TAF
KMKL 050523Z 0506/0606 VRB02KT P6SM VCSH SCT025 OVC100
      TEMPO 0506/0507 BKN025 OVC100
     FM050700 VRB02KT 5SM BR BKN012 OVC020
      TEMPO 0509/0513 2SM BR OVC007
     FM051600 23006KT P6SM BKN020 OVC035
     FM051900 23006KT P6SM VCTS BKN040CB
     FM060000 19003KT P6SM SCT040 SCT250=

USA.gov is the U.S. government's official web portal to all federal, state and local government web resources and services.